sensor_id;sensor_type;location;lat;lon;timestamp;P1;durP1;ratioP1;P2;durP2;ratioP2
11046;SDS011;5576;50.008;10.596;2023-06-05T00:02:00;1.83;;;1.30;;
11046;SDS011;5576;50.008;10.596;2023-06-05T00:04:26;1.67;;;1.30;;
11046;SDS011;5576;50.008;10.596;2023-06-05T00:06:53;3.15;;;1.40;;
11046;SDS011;5576;50.008;10.596;2023-06-05T00:09:19;1.70;;;1.60;;
11046;SDS011;5576;50.008;10.596;2023-06-05T00:11:45;1.83;;;1.50;;
11046;SDS011;5576;50.008;10.596;2023-06-05T00:14:11;2.50;;;1.60;;
11046;SDS011;5576;50.008;10.596;2023-06-05T00:16:37;2.27;;;1.40;;
11046;SDS011;5576;50.008;10.596;2023-06-05T00:19:03;1.88;;;1.50;;
11046;SDS011;5576;50.008;10.596;2023-06-05T00:21:29;2.83;;;1.60;;
11046;SDS011;5576;50.008;10.596;2023-06-05T00:23:55;2.00;;;1.40;;
11046;SDS011;5576;50.008;10.596;2023-06-05T00:26:21;2.15;;;1.40;;
11046;SDS011;5576;50.008;10.596;2023-06-05T00:28:48;2.13;;;1.50;;
11046;SDS011;5576;50.008;10.596;2023-06-05T00:31:14;1.85;;;1.48;;
11046;SDS011;5576;50.008;10.596;2023-06-05T00:33:40;2.23;;;1.40;;
11046;SDS011;5576;50.008;10.596;2023-06-05T00:36:06;2.55;;;1.63;;
11046;SDS011;5576;50.008;10.596;2023-06-05T00:38:33;3.95;;;1.58;;
11046;SDS011;5576;50.008;10.596;2023-06-05T00:40:59;1.73;;;1.33;;
11046;SDS011;5576;50.008;10.596;2023-06-05T00:43:25;3.67;;;1.50;;
11046;SDS011;5576;50.008;10.596;2023-06-05T00:45:51;2.10;;;1.23;;
11046;SDS011;5576;50.008;10.596;2023-06-05T00:48:23;2.42;;;1.30;;
11046;SDS011;5576;50.008;10.596;2023-06-05T00:50:49;2.35;;;1.58;;
11046;SDS011;5576;50.008;10.596;2023-06-05T00:53:15;2.60;;;1.30;;
11046;SDS011;5576;50.008;10.596;2023-06-05T00:55:41;2.13;;;1.30;;
11046;SDS011;5576;50.008;10.596;2023-06-05T00:58:07;4.70;;;1.40;;
11046;SDS011;5576;50.008;10.596;2023-06-05T01:00:33;1.67;;;1.38;;
11046;SDS011;5576;50.008;10.596;2023-06-05T01:02:59;2.28;;;1.40;;
11046;SDS011;5576;50.008;10.596;2023-06-05T01:05:26;2.10;;;1.50;;
11046;SDS011;5576;50.008;10.596;2023-06-05T01:07:52;2.00;;;1.40;;
11046;SDS011;5576;50.008;10.596;2023-06-05T01:10:18;1.85;;;1.30;;
11046;SDS011;5576;50.008;10.596;2023-06-05T01:15:46;1.73;;;1.30;;
11046;SDS011;5576;50.008;10.596;2023-06-05T01:18:13;1.83;;;1.38;;
11046;SDS011;5576;50.008;10.596;2023-06-05T01:20:43;3.22;;;1.42;;
11046;SDS011;5576;50.008;10.596;2023-06-05T01:23:09;1.67;;;1.57;;
11046;SDS011;5576;50.008;10.596;2023-06-05T01:25:36;2.75;;;1.50;;
11046;SDS011;5576;50.008;10.596;2023-06-05T01:28:07;3.57;;;1.70;;
11046;SDS011;5576;50.008;10.596;2023-06-05T01:30:46;2.37;;;1.60;;
11046;SDS011;5576;50.008;10.596;2023-06-05T01:33:23;2.78;;;1.50;;
11046;SDS011;5576;50.008;10.596;2023-06-05T01:35:54;2.88;;;1.63;;
11046;SDS011;5576;50.008;10.596;2023-06-05T01:38:21;2.50;;;1.58;;
11046;SDS011;5576;50.008;10.596;2023-06-05T01:40:48;2.20;;;1.50;;
11046;SDS011;5576;50.008;10.596;2023-06-05T01:43:16;2.65;;;1.40;;
11046;SDS011;5576;50.008;10.596;2023-06-05T01:45:43;3.00;;;1.65;;
11046;SDS011;5576;50.008;10.596;2023-06-05T01:48:09;2.00;;;1.40;;
11046;SDS011;5576;50.008;10.596;2023-06-05T01:50:36;2.80;;;1.58;;
11046;SDS011;5576;50.008;10.596;2023-06-05T01:53:03;2.65;;;1.58;;
11046;SDS011;5576;50.008;10.596;2023-06-05T01:55:31;2.35;;;1.50;;
11046;SDS011;5576;50.008;10.596;2023-06-05T01:57:56;3.77;;;1.90;;
11046;SDS011;5576;50.008;10.596;2023-06-05T02:00:22;3.38;;;1.67;;
11046;SDS011;5576;50.008;10.596;2023-06-05T02:02:48;1.80;;;1.50;;
11046;SDS011;5576;50.008;10.596;2023-06-05T02:05:15;2.67;;;1.42;;
11046;SDS011;5576;50.008;10.596;2023-06-05T02:07:44;2.00;;;1.40;;
11046;SDS011;5576;50.008;10.596;2023-06-05T02:10:18;2.22;;;1.50;;
11046;SDS011;5576;50.008;10.596;2023-06-05T02:12:44;1.48;;;1.30;;
11046;SDS011;5576;50.008;10.596;2023-06-05T02:15:11;3.08;;;1.60;;
11046;SDS011;5576;50.008;10.596;2023-06-05T02:17:39;2.60;;;1.58;;
11046;SDS011;5576;50.008;10.596;2023-06-05T02:20:11;2.53;;;1.50;;
11046;SDS011;5576;50.008;10.596;2023-06-05T02:22:37;1.75;;;1.40;;
11046;SDS011;5576;50.008;10.596;2023-06-05T02:25:05;1.90;;;1.65;;
11046;SDS011;5576;50.008;10.596;2023-06-05T02:27:30;2.30;;;1.40;;
11046;SDS011;5576;50.008;10.596;2023-06-05T02:29:56;1.67;;;1.58;;
11046;SDS011;5576;50.008;10.596;2023-06-05T02:32:22;3.08;;;1.88;;
11046;SDS011;5576;50.008;10.596;2023-06-05T02:34:51;3.05;;;1.73;;
11046;SDS011;5576;50.008;10.596;2023-06-05T02:37:18;2.72;;;1.58;;
11046;SDS011;5576;50.008;10.596;2023-06-05T02:39:48;2.73;;;1.40;;
11046;SDS011;5576;50.008;10.596;2023-06-05T02:42:14;2.10;;;1.60;;
11046;SDS011;5576;50.008;10.596;2023-06-05T02:44:40;2.28;;;1.50;;
11046;SDS011;5576;50.008;10.596;2023-06-05T02:47:05;1.63;;;1.40;;
11046;SDS011;5576;50.008;10.596;2023-06-05T02:49:32;1.97;;;1.50;;
11046;SDS011;5576;50.008;10.596;2023-06-05T02:51:58;2.60;;;1.45;;
11046;SDS011;5576;50.008;10.596;2023-06-05T02:54:25;2.30;;;1.30;;
11046;SDS011;5576;50.008;10.596;2023-06-05T02:56:52;2.22;;;1.60;;
11046;SDS011;5576;50.008;10.596;2023-06-05T02:59:20;2.47;;;1.50;;
11046;SDS011;5576;50.008;10.596;2023-06-05T03:01:50;1.92;;;1.52;;
11046;SDS011;5576;50.008;10.596;2023-06-05T03:04:17;2.78;;;1.60;;
11046;SDS011;5576;50.008;10.596;2023-06-05T03:06:47;3.17;;;1.60;;
11046;SDS011;5576;50.008;10.596;2023-06-05T03:09:13;2.03;;;1.42;;
11046;SDS011;5576;50.008;10.596;2023-06-05T03:11:39;2.42;;;2.10;;
11046;SDS011;5576;50.008;10.596;2023-06-05T03:14:06;4.20;;;2.20;;
11046;SDS011;5576;50.008;10.596;2023-06-05T03:16:34;2.63;;;1.88;;
11046;SDS011;5576;50.008;10.596;2023-06-05T03:19:07;2.13;;;1.70;;
11046;SDS011;5576;50.008;10.596;2023-06-05T03:21:35;2.50;;;1.40;;
11046;SDS011;5576;50.008;10.596;2023-06-05T03:24:04;2.75;;;1.70;;
11046;SDS011;5576;50.008;10.596;2023-06-05T03:26:32;2.45;;;1.60;;
11046;SDS011;5576;50.008;10.596;2023-06-05T03:28:59;1.88;;;1.60;;
11046;SDS011;5576;50.008;10.596;2023-06-05T03:31:27;3.28;;;1.70;;
11046;SDS011;5576;50.008;10.596;2023-06-05T03:33:53;2.17;;;1.43;;
11046;SDS011;5576;50.008;10.596;2023-06-05T03:36:19;3.17;;;1.90;;
11046;SDS011;5576;50.008;10.596;2023-06-05T03:38:47;2.10;;;1.50;;
11046;SDS011;5576;50.008;10.596;2023-06-05T03:41:12;2.00;;;1.70;;
11046;SDS011;5576;50.008;10.596;2023-06-05T03:43:38;2.60;;;1.40;;
11046;SDS011;5576;50.008;10.596;2023-06-05T03:46:04;3.20;;;1.40;;
11046;SDS011;5576;50.008;10.596;2023-06-05T03:48:30;1.77;;;1.60;;
11046;SDS011;5576;50.008;10.596;2023-06-05T03:50:57;3.10;;;1.90;;
11046;SDS011;5576;50.008;10.596;2023-06-05T03:53:23;5.13;;;2.90;;
11046;SDS011;5576;50.008;10.596;2023-06-05T03:55:49;3.63;;;2.57;;
11046;SDS011;5576;50.008;10.596;2023-06-05T03:58:20;4.20;;;2.30;;
11046;SDS011;5576;50.008;10.596;2023-06-05T04:00:49;5.43;;;3.50;;
11046;SDS011;5576;50.008;10.596;2023-06-05T04:03:16;5.40;;;3.83;;
11046;SDS011;5576;50.008;10.596;2023-06-05T04:05:41;5.93;;;4.00;;
11046;SDS011;5576;50.008;10.596;2023-06-05T04:08:08;5.80;;;3.83;;
11046;SDS011;5576;50.008;10.596;2023-06-05T04:10:35;4.82;;;3.00;;
11046;SDS011;5576;50.008;10.596;2023-06-05T04:13:01;3.50;;;2.90;;
11046;SDS011;5576;50.008;10.596;2023-06-05T04:15:29;3.73;;;2.30;;
11046;SDS011;5576;50.008;10.596;2023-06-05T04:17:55;2.63;;;2.15;;
11046;SDS011;5576;50.008;10.596;2023-06-05T04:20:21;3.40;;;1.97;;
11046;SDS011;5576;50.008;10.596;2023-06-05T04:22:47;3.67;;;1.75;;
11046;SDS011;5576;50.008;10.596;2023-06-05T04:25:14;2.50;;;1.80;;
11046;SDS011;5576;50.008;10.596;2023-06-05T04:27:42;2.72;;;1.60;;
11046;SDS011;5576;50.008;10.596;2023-06-05T04:30:10;3.40;;;1.90;;
11046;SDS011;5576;50.008;10.596;2023-06-05T04:32:37;3.60;;;1.60;;
11046;SDS011;5576;50.008;10.596;2023-06-05T04:35:05;2.88;;;1.80;;
11046;SDS011;5576;50.008;10.596;2023-06-05T04:37:32;2.33;;;1.92;;
11046;SDS011;5576;50.008;10.596;2023-06-05T04:39:58;2.25;;;1.80;;
11046;SDS011;5576;50.008;10.596;2023-06-05T04:42:24;4.20;;;2.00;;
11046;SDS011;5576;50.008;10.596;2023-06-05T04:44:56;4.93;;;2.00;;
11046;SDS011;5576;50.008;10.596;2023-06-05T04:47:24;4.40;;;1.98;;
11046;SDS011;5576;50.008;10.596;2023-06-05T04:49:50;3.70;;;2.20;;
11046;SDS011;5576;50.008;10.596;2023-06-05T04:52:19;4.13;;;1.90;;
11046;SDS011;5576;50.008;10.596;2023-06-05T04:54:47;3.47;;;1.98;;
11046;SDS011;5576;50.008;10.596;2023-06-05T04:57:13;2.58;;;1.52;;
11046;SDS011;5576;50.008;10.596;2023-06-05T04:59:42;5.40;;;1.70;;
11046;SDS011;5576;50.008;10.596;2023-06-05T05:02:11;2.75;;;1.77;;
11046;SDS011;5576;50.008;10.596;2023-06-05T05:04:39;3.42;;;1.95;;
11046;SDS011;5576;50.008;10.596;2023-06-05T05:07:05;3.00;;;1.88;;
11046;SDS011;5576;50.008;10.596;2023-06-05T05:09:31;4.80;;;2.00;;
11046;SDS011;5576;50.008;10.596;2023-06-05T05:11:58;3.53;;;1.90;;
11046;SDS011;5576;50.008;10.596;2023-06-05T05:14:24;2.58;;;1.77;;
11046;SDS011;5576;50.008;10.596;2023-06-05T05:16:52;2.75;;;1.70;;
11046;SDS011;5576;50.008;10.596;2023-06-05T05:19:20;2.70;;;1.58;;
11046;SDS011;5576;50.008;10.596;2023-06-05T05:21:47;3.10;;;1.65;;
11046;SDS011;5576;50.008;10.596;2023-06-05T05:24:13;2.63;;;1.70;;
11046;SDS011;5576;50.008;10.596;2023-06-05T05:26:41;2.15;;;1.70;;
11046;SDS011;5576;50.008;10.596;2023-06-05T05:29:07;3.00;;;1.90;;
11046;SDS011;5576;50.008;10.596;2023-06-05T05:31:34;4.00;;;2.00;;
11046;SDS011;5576;50.008;10.596;2023-06-05T05:34:00;3.85;;;2.20;;
11046;SDS011;5576;50.008;10.596;2023-06-05T05:36:26;2.60;;;1.80;;
11046;SDS011;5576;50.008;10.596;2023-06-05T05:38:53;3.67;;;1.80;;
11046;SDS011;5576;50.008;10.596;2023-06-05T05:41:19;2.87;;;1.90;;
11046;SDS011;5576;50.008;10.596;2023-06-05T05:43:46;4.60;;;2.40;;
11046;SDS011;5576;50.008;10.596;2023-06-05T05:46:11;4.80;;;2.10;;
11046;SDS011;5576;50.008;10.596;2023-06-05T05:48:37;3.87;;;2.10;;
11046;SDS011;5576;50.008;10.596;2023-06-05T05:51:05;5.13;;;2.50;;
11046;SDS011;5576;50.008;10.596;2023-06-05T05:53:31;4.88;;;2.10;;
11046;SDS011;5576;50.008;10.596;2023-06-05T05:55:57;4.70;;;2.00;;
11046;SDS011;5576;50.008;10.596;2023-06-05T05:58:24;5.15;;;2.25;;
11046;SDS011;5576;50.008;10.596;2023-06-05T06:00:49;3.43;;;2.33;;
11046;SDS011;5576;50.008;10.596;2023-06-05T06:03:16;2.60;;;1.77;;
11046;SDS011;5576;50.008;10.596;2023-06-05T06:05:42;3.65;;;2.13;;
11046;SDS011;5576;50.008;10.596;2023-06-05T06:08:09;3.70;;;1.85;;
11046;SDS011;5576;50.008;10.596;2023-06-05T06:10:36;3.40;;;1.90;;
11046;SDS011;5576;50.008;10.596;2023-06-05T06:13:02;3.72;;;1.95;;
11046;SDS011;5576;50.008;10.596;2023-06-05T06:15:29;4.03;;;2.05;;
11046;SDS011;5576;50.008;10.596;2023-06-05T06:17:56;2.67;;;1.77;;
11046;SDS011;5576;50.008;10.596;2023-06-05T06:20:22;3.53;;;1.92;;
11046;SDS011;5576;50.008;10.596;2023-06-05T06:22:48;2.85;;;1.98;;
11046;SDS011;5576;50.008;10.596;2023-06-05T06:25:14;4.70;;;2.00;;
11046;SDS011;5576;50.008;10.596;2023-06-05T06:27:41;3.72;;;1.85;;
11046;SDS011;5576;50.008;10.596;2023-06-05T06:30:11;6.00;;;1.90;;
11046;SDS011;5576;50.008;10.596;2023-06-05T06:32:37;2.92;;;1.90;;
11046;SDS011;5576;50.008;10.596;2023-06-05T06:35:03;2.67;;;1.90;;
11046;SDS011;5576;50.008;10.596;2023-06-05T06:37:30;2.72;;;1.77;;
11046;SDS011;5576;50.008;10.596;2023-06-05T06:39:55;2.47;;;2.10;;
11046;SDS011;5576;50.008;10.596;2023-06-05T06:42:21;3.20;;;1.92;;
11046;SDS011;5576;50.008;10.596;2023-06-05T06:44:57;2.65;;;1.92;;
11046;SDS011;5576;50.008;10.596;2023-06-05T06:47:23;4.00;;;1.95;;
11046;SDS011;5576;50.008;10.596;2023-06-05T06:49:50;2.78;;;1.92;;
11046;SDS011;5576;50.008;10.596;2023-06-05T06:52:16;2.40;;;1.60;;
11046;SDS011;5576;50.008;10.596;2023-06-05T06:54:43;2.47;;;1.60;;
11046;SDS011;5576;50.008;10.596;2023-06-05T06:57:09;3.40;;;2.00;;
11046;SDS011;5576;50.008;10.596;2023-06-05T06:59:35;2.05;;;1.60;;
11046;SDS011;5576;50.008;10.596;2023-06-05T07:04:48;3.22;;;1.67;;
11046;SDS011;5576;50.008;10.596;2023-06-05T07:07:14;1.98;;;1.60;;
11046;SDS011;5576;50.008;10.596;2023-06-05T07:09:42;2.00;;;1.70;;
11046;SDS011;5576;50.008;10.596;2023-06-05T07:12:09;4.70;;;2.00;;
11046;SDS011;5576;50.008;10.596;2023-06-05T07:14:37;2.35;;;1.70;;
11046;SDS011;5576;50.008;10.596;2023-06-05T07:17:03;2.67;;;1.70;;
11046;SDS011;5576;50.008;10.596;2023-06-05T07:19:31;2.42;;;1.70;;
11046;SDS011;5576;50.008;10.596;2023-06-05T07:21:58;1.90;;;1.60;;
11046;SDS011;5576;50.008;10.596;2023-06-05T07:24:26;4.75;;;1.83;;
11046;SDS011;5576;50.008;10.596;2023-06-05T07:26:54;2.80;;;1.67;;
11046;SDS011;5576;50.008;10.596;2023-06-05T07:29:22;1.80;;;1.60;;
11046;SDS011;5576;50.008;10.596;2023-06-05T07:31:50;2.42;;;1.52;;
11046;SDS011;5576;50.008;10.596;2023-06-05T07:34:17;3.33;;;1.70;;
11046;SDS011;5576;50.008;10.596;2023-06-05T07:36:44;1.92;;;1.60;;
11046;SDS011;5576;50.008;10.596;2023-06-05T07:39:11;2.30;;;1.63;;
11046;SDS011;5576;50.008;10.596;2023-06-05T07:41:38;2.22;;;1.70;;
11046;SDS011;5576;50.008;10.596;2023-06-05T07:44:05;2.08;;;1.60;;
11046;SDS011;5576;50.008;10.596;2023-06-05T07:46:33;3.85;;;1.90;;
11046;SDS011;5576;50.008;10.596;2023-06-05T07:48:59;4.13;;;1.80;;
11046;SDS011;5576;50.008;10.596;2023-06-05T07:51:24;2.70;;;1.70;;
11046;SDS011;5576;50.008;10.596;2023-06-05T07:53:51;2.55;;;1.67;;
11046;SDS011;5576;50.008;10.596;2023-06-05T07:56:17;2.78;;;2.00;;
11046;SDS011;5576;50.008;10.596;2023-06-05T07:58:42;2.03;;;1.60;;
11046;SDS011;5576;50.008;10.596;2023-06-05T08:01:09;3.53;;;1.80;;
11046;SDS011;5576;50.008;10.596;2023-06-05T08:03:37;3.30;;;1.70;;
11046;SDS011;5576;50.008;10.596;2023-06-05T08:06:03;2.42;;;1.90;;
11046;SDS011;5576;50.008;10.596;2023-06-05T08:08:28;2.03;;;1.60;;
11046;SDS011;5576;50.008;10.596;2023-06-05T08:10:55;3.50;;;1.83;;
11046;SDS011;5576;50.008;10.596;2023-06-05T08:13:21;2.17;;;1.80;;
11046;SDS011;5576;50.008;10.596;2023-06-05T08:15:46;2.50;;;1.60;;
11046;SDS011;5576;50.008;10.596;2023-06-05T08:18:12;4.07;;;1.80;;
11046;SDS011;5576;50.008;10.596;2023-06-05T08:20:39;2.13;;;1.67;;
11046;SDS011;5576;50.008;10.596;2023-06-05T08:23:05;3.28;;;1.67;;
11046;SDS011;5576;50.008;10.596;2023-06-05T08:25:31;3.53;;;1.70;;
11046;SDS011;5576;50.008;10.596;2023-06-05T08:27:56;2.58;;;1.73;;
11046;SDS011;5576;50.008;10.596;2023-06-05T08:30:22;2.63;;;1.53;;
11046;SDS011;5576;50.008;10.596;2023-06-05T08:32:48;2.57;;;1.60;;
11046;SDS011;5576;50.008;10.596;2023-06-05T08:35:13;1.70;;;1.60;;
11046;SDS011;5576;50.008;10.596;2023-06-05T08:37:39;1.85;;;1.63;;
11046;SDS011;5576;50.008;10.596;2023-06-05T08:40:05;2.67;;;1.60;;
11046;SDS011;5576;50.008;10.596;2023-06-05T08:42:33;1.80;;;1.50;;
11046;SDS011;5576;50.008;10.596;2023-06-05T08:45:00;2.10;;;1.60;;
11046;SDS011;5576;50.008;10.596;2023-06-05T08:47:27;2.30;;;1.55;;
11046;SDS011;5576;50.008;10.596;2023-06-05T08:49:54;2.10;;;1.67;;
11046;SDS011;5576;50.008;10.596;2023-06-05T08:52:22;2.55;;;1.80;;
11046;SDS011;5576;50.008;10.596;2023-06-05T08:54:48;3.40;;;1.75;;
11046;SDS011;5576;50.008;10.596;2023-06-05T08:57:15;3.10;;;1.70;;
11046;SDS011;5576;50.008;10.596;2023-06-05T08:59:41;3.25;;;1.95;;
11046;SDS011;5576;50.008;10.596;2023-06-05T09:02:08;2.78;;;1.60;;
11046;SDS011;5576;50.008;10.596;2023-06-05T09:04:35;2.75;;;1.70;;
11046;SDS011;5576;50.008;10.596;2023-06-05T09:07:01;1.65;;;1.50;;
11046;SDS011;5576;50.008;10.596;2023-06-05T09:09:27;2.03;;;1.53;;
11046;SDS011;5576;50.008;10.596;2023-06-05T09:12:08;2.30;;;1.48;;
11046;SDS011;5576;50.008;10.596;2023-06-05T09:14:34;1.67;;;1.47;;
11046;SDS011;5576;50.008;10.596;2023-06-05T09:17:01;2.65;;;1.60;;
11046;SDS011;5576;50.008;10.596;2023-06-05T09:19:36;2.40;;;1.80;;
11046;SDS011;5576;50.008;10.596;2023-06-05T09:22:02;2.45;;;1.80;;
11046;SDS011;5576;50.008;10.596;2023-06-05T09:24:30;2.13;;;1.67;;
11046;SDS011;5576;50.008;10.596;2023-06-05T09:26:57;3.67;;;1.80;;
11046;SDS011;5576;50.008;10.596;2023-06-05T09:29:25;3.20;;;1.80;;
11046;SDS011;5576;50.008;10.596;2023-06-05T09:31:52;2.20;;;1.80;;
11046;SDS011;5576;50.008;10.596;2023-06-05T09:34:22;1.90;;;1.70;;
11046;SDS011;5576;50.008;10.596;2023-06-05T09:36:57;2.67;;;1.80;;
11046;SDS011;5576;50.008;10.596;2023-06-05T09:39:26;2.03;;;1.60;;
11046;SDS011;5576;50.008;10.596;2023-06-05T09:41:54;2.42;;;1.70;;
11046;SDS011;5576;50.008;10.596;2023-06-05T09:44:21;2.13;;;1.77;;
11046;SDS011;5576;50.008;10.596;2023-06-05T09:46:51;2.22;;;1.80;;
11046;SDS011;5576;50.008;10.596;2023-06-05T09:49:30;1.95;;;1.67;;
11046;SDS011;5576;50.008;10.596;2023-06-05T09:51:57;3.77;;;1.60;;
11046;SDS011;5576;50.008;10.596;2023-06-05T09:54:27;2.92;;;1.77;;
11046;SDS011;5576;50.008;10.596;2023-06-05T09:56:56;2.90;;;1.90;;
11046;SDS011;5576;50.008;10.596;2023-06-05T09:59:23;3.42;;;1.80;;
11046;SDS011;5576;50.008;10.596;2023-06-05T10:01:57;2.53;;;1.80;;
11046;SDS011;5576;50.008;10.596;2023-06-05T10:04:29;4.35;;;1.77;;
11046;SDS011;5576;50.008;10.596;2023-06-05T10:07:01;3.38;;;1.90;;
11046;SDS011;5576;50.008;10.596;2023-06-05T10:09:28;2.45;;;1.80;;
11046;SDS011;5576;50.008;10.596;2023-06-05T10:11:56;2.83;;;1.90;;
11046;SDS011;5576;50.008;10.596;2023-06-05T10:14:23;2.40;;;1.90;;
11046;SDS011;5576;50.008;10.596;2023-06-05T10:16:50;2.28;;;2.00;;
11046;SDS011;5576;50.008;10.596;2023-06-05T10:19:17;4.53;;;2.17;;
11046;SDS011;5576;50.008;10.596;2023-06-05T10:21:48;2.20;;;1.90;;
11046;SDS011;5576;50.008;10.596;2023-06-05T10:24:23;3.05;;;2.33;;
11046;SDS011;5576;50.008;10.596;2023-06-05T10:32:30;2.55;;;2.08;;
11046;SDS011;5576;50.008;10.596;2023-06-05T10:35:20;3.23;;;2.50;;
11046;SDS011;5576;50.008;10.596;2023-06-05T10:40:43;3.15;;;2.85;;
11046;SDS011;5576;50.008;10.596;2023-06-05T10:43:27;2.80;;;1.90;;
11046;SDS011;5576;50.008;10.596;2023-06-05T10:45:55;2.83;;;2.00;;
11046;SDS011;5576;50.008;10.596;2023-06-05T10:48:55;3.10;;;2.03;;
11046;SDS011;5576;50.008;10.596;2023-06-05T10:51:44;4.10;;;2.25;;
11046;SDS011;5576;50.008;10.596;2023-06-05T10:54:12;2.88;;;2.03;;
11046;SDS011;5576;50.008;10.596;2023-06-05T10:56:58;2.72;;;2.10;;
11046;SDS011;5576;50.008;10.596;2023-06-05T10:59:30;4.25;;;2.50;;
11046;SDS011;5576;50.008;10.596;2023-06-05T11:07:22;3.92;;;2.80;;
11046;SDS011;5576;50.008;10.596;2023-06-05T11:10:05;3.22;;;2.92;;
11046;SDS011;5576;50.008;10.596;2023-06-05T11:15:16;5.57;;;2.90;;
11046;SDS011;5576;50.008;10.596;2023-06-05T11:17:54;3.45;;;2.58;;
11046;SDS011;5576;50.008;10.596;2023-06-05T11:28:05;3.92;;;2.90;;
11046;SDS011;5576;50.008;10.596;2023-06-05T11:30:38;3.58;;;2.80;;
11046;SDS011;5576;50.008;10.596;2023-06-05T11:33:06;6.80;;;2.90;;
11046;SDS011;5576;50.008;10.596;2023-06-05T11:35:33;5.03;;;2.80;;
11046;SDS011;5576;50.008;10.596;2023-06-05T11:38:17;6.22;;;3.40;;
11046;SDS011;5576;50.008;10.596;2023-06-05T11:40:44;3.35;;;2.85;;
11046;SDS011;5576;50.008;10.596;2023-06-05T11:43:11;3.70;;;3.10;;
11046;SDS011;5576;50.008;10.596;2023-06-05T11:45:39;5.15;;;3.28;;
11046;SDS011;5576;50.008;10.596;2023-06-05T11:48:07;4.40;;;3.05;;
11046;SDS011;5576;50.008;10.596;2023-06-05T11:50:34;3.22;;;2.90;;
11046;SDS011;5576;50.008;10.596;2023-06-05T11:53:05;3.23;;;2.93;;
11046;SDS011;5576;50.008;10.596;2023-06-05T11:55:33;3.65;;;3.00;;
11046;SDS011;5576;50.008;10.596;2023-06-05T12:01:12;4.65;;;4.10;;
11046;SDS011;5576;50.008;10.596;2023-06-05T12:03:42;3.95;;;2.95;;
11046;SDS011;5576;50.008;10.596;2023-06-05T12:06:10;3.97;;;3.40;;
11046;SDS011;5576;50.008;10.596;2023-06-05T12:08:38;4.63;;;3.00;;
11046;SDS011;5576;50.008;10.596;2023-06-05T12:11:18;4.63;;;3.03;;
11046;SDS011;5576;50.008;10.596;2023-06-05T12:13:46;4.35;;;3.30;;
11046;SDS011;5576;50.008;10.596;2023-06-05T12:16:15;3.35;;;2.80;;
11046;SDS011;5576;50.008;10.596;2023-06-05T12:18:41;4.03;;;3.00;;
11046;SDS011;5576;50.008;10.596;2023-06-05T12:21:18;3.83;;;3.30;;
11046;SDS011;5576;50.008;10.596;2023-06-05T12:23:48;4.15;;;3.10;;
11046;SDS011;5576;50.008;10.596;2023-06-05T12:26:14;3.53;;;3.03;;
11046;SDS011;5576;50.008;10.596;2023-06-05T12:28:41;3.78;;;3.10;;
11046;SDS011;5576;50.008;10.596;2023-06-05T12:31:08;3.10;;;2.80;;
11046;SDS011;5576;50.008;10.596;2023-06-05T12:33:33;4.37;;;3.27;;
11046;SDS011;5576;50.008;10.596;2023-06-05T12:36:11;4.32;;;3.28;;
11046;SDS011;5576;50.008;10.596;2023-06-05T12:38:38;4.37;;;3.20;;
11046;SDS011;5576;50.008;10.596;2023-06-05T12:41:05;4.50;;;3.00;;
11046;SDS011;5576;50.008;10.596;2023-06-05T12:43:33;3.90;;;3.50;;
11046;SDS011;5576;50.008;10.596;2023-06-05T12:45:59;4.28;;;3.10;;
11046;SDS011;5576;50.008;10.596;2023-06-05T12:48:26;4.00;;;3.13;;
11046;SDS011;5576;50.008;10.596;2023-06-05T12:50:51;4.70;;;3.20;;
11046;SDS011;5576;50.008;10.596;2023-06-05T12:53:18;3.83;;;3.43;;
11046;SDS011;5576;50.008;10.596;2023-06-05T12:55:44;3.58;;;3.28;;
11046;SDS011;5576;50.008;10.596;2023-06-05T12:58:10;3.53;;;3.20;;
11046;SDS011;5576;50.008;10.596;2023-06-05T13:00:36;3.50;;;3.20;;
11046;SDS011;5576;50.008;10.596;2023-06-05T13:03:02;4.35;;;3.20;;
11046;SDS011;5576;50.008;10.596;2023-06-05T13:05:29;3.80;;;3.30;;
11046;SDS011;5576;50.008;10.596;2023-06-05T13:07:57;4.20;;;3.30;;
11046;SDS011;5576;50.008;10.596;2023-06-05T13:10:24;4.57;;;3.30;;
11046;SDS011;5576;50.008;10.596;2023-06-05T13:12:49;4.38;;;3.30;;
11046;SDS011;5576;50.008;10.596;2023-06-05T13:15:15;3.67;;;3.10;;
11046;SDS011;5576;50.008;10.596;2023-06-05T13:17:41;4.57;;;3.20;;
11046;SDS011;5576;50.008;10.596;2023-06-05T13:20:08;3.63;;;3.30;;
11046;SDS011;5576;50.008;10.596;2023-06-05T13:22:36;3.92;;;3.35;;
11046;SDS011;5576;50.008;10.596;2023-06-05T13:25:03;4.20;;;3.10;;
11046;SDS011;5576;50.008;10.596;2023-06-05T13:27:30;4.03;;;3.40;;
11046;SDS011;5576;50.008;10.596;2023-06-05T13:29:55;3.67;;;3.23;;
11046;SDS011;5576;50.008;10.596;2023-06-05T13:32:21;4.30;;;3.77;;
11046;SDS011;5576;50.008;10.596;2023-06-05T13:34:47;3.53;;;3.22;;
11046;SDS011;5576;50.008;10.596;2023-06-05T13:37:12;3.35;;;3.05;;
11046;SDS011;5576;50.008;10.596;2023-06-05T13:39:38;6.40;;;3.67;;
11046;SDS011;5576;50.008;10.596;2023-06-05T13:42:04;5.78;;;3.53;;
11046;SDS011;5576;50.008;10.596;2023-06-05T13:44:30;4.60;;;3.47;;
11046;SDS011;5576;50.008;10.596;2023-06-05T13:46:56;4.35;;;3.25;;
11046;SDS011;5576;50.008;10.596;2023-06-05T13:49:22;4.50;;;3.40;;
11046;SDS011;5576;50.008;10.596;2023-06-05T13:51:48;6.22;;;3.60;;
11046;SDS011;5576;50.008;10.596;2023-06-05T13:54:14;5.57;;;3.60;;
11046;SDS011;5576;50.008;10.596;2023-06-05T13:56:39;4.25;;;3.38;;
11046;SDS011;5576;50.008;10.596;2023-06-05T13:59:05;3.67;;;3.20;;
11046;SDS011;5576;50.008;10.596;2023-06-05T14:01:31;3.67;;;3.33;;
11046;SDS011;5576;50.008;10.596;2023-06-05T14:03:56;4.70;;;3.53;;
11046;SDS011;5576;50.008;10.596;2023-06-05T14:06:22;4.32;;;3.50;;
11046;SDS011;5576;50.008;10.596;2023-06-05T14:08:48;3.93;;;3.57;;
11046;SDS011;5576;50.008;10.596;2023-06-05T14:11:14;4.60;;;3.80;;
11046;SDS011;5576;50.008;10.596;2023-06-05T14:13:40;8.30;;;3.83;;
11046;SDS011;5576;50.008;10.596;2023-06-05T14:16:06;3.55;;;3.25;;
11046;SDS011;5576;50.008;10.596;2023-06-05T14:18:35;3.90;;;3.50;;
11046;SDS011;5576;50.008;10.596;2023-06-05T14:21:01;4.85;;;3.80;;
11046;SDS011;5576;50.008;10.596;2023-06-05T14:23:26;4.73;;;3.50;;
11046;SDS011;5576;50.008;10.596;2023-06-05T14:25:52;3.95;;;3.40;;
11046;SDS011;5576;50.008;10.596;2023-06-05T14:28:18;3.90;;;3.50;;
11046;SDS011;5576;50.008;10.596;2023-06-05T14:30:46;4.43;;;3.53;;
11046;SDS011;5576;50.008;10.596;2023-06-05T14:33:12;4.07;;;3.30;;
11046;SDS011;5576;50.008;10.596;2023-06-05T14:35:37;3.90;;;3.40;;
11046;SDS011;5576;50.008;10.596;2023-06-05T14:38:03;4.50;;;3.40;;
11046;SDS011;5576;50.008;10.596;2023-06-05T14:40:29;5.15;;;3.75;;
11046;SDS011;5576;50.008;10.596;2023-06-05T14:42:56;5.35;;;3.80;;
11046;SDS011;5576;50.008;10.596;2023-06-05T14:45:22;4.27;;;3.50;;
11046;SDS011;5576;50.008;10.596;2023-06-05T14:47:47;4.70;;;3.80;;
11046;SDS011;5576;50.008;10.596;2023-06-05T14:50:13;4.50;;;3.60;;
11046;SDS011;5576;50.008;10.596;2023-06-05T14:52:39;4.50;;;3.78;;
11046;SDS011;5576;50.008;10.596;2023-06-05T14:55:05;5.03;;;4.03;;
11046;SDS011;5576;50.008;10.596;2023-06-05T14:57:31;5.97;;;3.80;;
11046;SDS011;5576;50.008;10.596;2023-06-05T14:59:57;5.60;;;4.00;;
11046;SDS011;5576;50.008;10.596;2023-06-05T15:02:22;5.70;;;3.90;;
11046;SDS011;5576;50.008;10.596;2023-06-05T15:04:48;5.53;;;3.77;;
11046;SDS011;5576;50.008;10.596;2023-06-05T15:07:17;5.75;;;3.85;;
11046;SDS011;5576;50.008;10.596;2023-06-05T15:09:45;4.53;;;3.60;;
11046;SDS011;5576;50.008;10.596;2023-06-05T15:12:11;4.10;;;3.45;;
11046;SDS011;5576;50.008;10.596;2023-06-05T15:14:37;8.00;;;3.80;;
11046;SDS011;5576;50.008;10.596;2023-06-05T15:17:02;5.13;;;3.70;;
11046;SDS011;5576;50.008;10.596;2023-06-05T15:19:28;4.10;;;3.63;;
11046;SDS011;5576;50.008;10.596;2023-06-05T15:21:54;4.00;;;3.60;;
11046;SDS011;5576;50.008;10.596;2023-06-05T15:24:20;4.87;;;3.57;;